createdAt,value
2023-03-24T00:04:52.604Z,54.55
2023-03-24T00:10:18.571Z,54.70
2023-03-24T00:15:40.147Z,54.85
2023-03-24T00:21:05.010Z,55.07
2023-03-24T00:26:27.169Z,55.05
2023-03-24T00:31:49.199Z,55.07
2023-03-24T00:37:11.028Z,55.21
2023-03-24T00:42:35.613Z,55.14
2023-03-24T00:47:58.603Z,55.21
2023-03-24T00:53:23.588Z,55.30
2023-03-24T00:58:45.775Z,55.41
2023-03-24T01:04:07.910Z,55.49
2023-03-24T01:09:34.244Z,55.62
2023-03-24T01:14:58.616Z,55.65
2023-03-24T01:20:20.907Z,55.78
2023-03-24T01:25:45.856Z,55.94
2023-03-24T01:31:10.388Z,56.12
2023-03-24T01:36:32.010Z,56.13
2023-03-24T01:41:54.348Z,56.44
2023-03-24T01:47:17.474Z,56.61
2023-03-24T01:52:39.121Z,56.66
2023-03-24T01:58:07.312Z,56.74
2023-03-24T02:03:42.421Z,56.78
2023-03-24T02:09:04.573Z,56.74
2023-03-24T02:14:26.871Z,56.77
2023-03-24T02:20:11.840Z,56.81
2023-03-24T02:25:58.327Z,56.85
2023-03-24T02:31:33.514Z,56.96
2023-03-24T02:37:08.183Z,56.91
2023-03-24T02:42:42.756Z,57.00
2023-03-24T02:48:38.197Z,56.76
2023-03-24T02:54:28.828Z,56.64
2023-03-24T02:59:57.879Z,56.87
2023-03-24T03:05:47.976Z,57.06
2023-03-24T03:11:16.015Z,57.42
2023-03-24T03:16:45.522Z,58.03
2023-03-24T03:22:13.398Z,58.66
2023-03-24T03:27:39.631Z,59.41
2023-03-24T03:33:11.188Z,60.32
2023-03-24T03:38:48.963Z,61.14
2023-03-24T03:44:10.994Z,61.71
2023-03-24T03:49:34.729Z,62.30
2023-03-24T03:54:56.979Z,62.92
2023-03-24T04:00:24.733Z,63.26
2023-03-24T04:06:02.395Z,63.49
2023-03-24T04:11:31.865Z,63.88
2023-03-24T04:17:52.134Z,64.04
2023-03-24T04:23:57.047Z,65.03
2023-03-24T04:29:33.310Z,65.48
2023-03-24T04:40:49.915Z,66.31
2023-03-24T04:46:12.564Z,66.56
2023-03-24T04:51:46.022Z,66.83
2023-03-24T04:57:15.875Z,67.45
2023-03-24T05:02:45.474Z,67.56
2023-03-24T05:08:20.909Z,68.04
2023-03-24T05:13:44.543Z,68.52
2023-03-24T05:19:06.788Z,68.83
2023-03-24T05:24:29.410Z,69.52
2023-03-24T05:29:51.529Z,70.15
2023-03-24T05:35:16.970Z,70.51
2023-03-24T05:40:38.901Z,71.11
2023-03-24T05:46:12.512Z,71.71
2023-03-24T05:51:35.505Z,72.17
2023-03-24T05:56:59.955Z,72.40
2023-03-24T06:02:27.145Z,72.69
2023-03-24T06:07:58.965Z,72.77
2023-03-24T06:13:22.290Z,72.99
2023-03-24T06:18:52.637Z,72.94
2023-03-24T06:24:34.654Z,73.01
2023-03-24T06:29:59.994Z,73.44
2023-03-24T06:35:22.721Z,73.60
2023-03-24T06:40:54.485Z,73.47
2023-03-24T06:46:19.544Z,73.01
2023-03-24T06:51:42.460Z,72.53
2023-03-24T06:57:07.126Z,72.18
2023-03-24T07:03:08.478Z,71.81
2023-03-24T07:08:38.654Z,71.46
2023-03-24T07:14:06.290Z,71.11
2023-03-24T07:19:28.411Z,70.72
2023-03-24T07:25:08.384Z,70.65
2023-03-24T07:30:40.513Z,70.31
2023-03-24T07:36:05.646Z,70.25
2023-03-24T07:41:32.519Z,70.20
2023-03-24T07:46:57.916Z,69.94
2023-03-24T07:52:19.529Z,69.88
2023-03-24T07:57:49.249Z,69.44
2023-03-24T08:03:15.804Z,69.22
2023-03-24T08:09:05.888Z,68.84
2023-03-24T08:14:32.094Z,68.29
2023-03-24T08:20:00.236Z,67.62
2023-03-24T08:25:25.854Z,67.00
2023-03-24T08:30:47.892Z,66.12
2023-03-24T08:36:11.100Z,65.55
2023-03-24T08:41:37.500Z,65.11
2023-03-24T08:47:01.557Z,64.38
2023-03-24T08:52:23.317Z,62.95
2023-03-24T08:57:48.824Z,61.16
2023-03-24T09:03:14.690Z,60.15
2023-03-24T09:08:36.740Z,58.77
2023-03-24T09:13:59.191Z,58.37
2023-03-24T09:19:21.640Z,57.31
2023-03-24T09:24:46.174Z,57.18
2023-03-24T09:30:09.610Z,56.14
2023-03-24T09:35:31.997Z,55.91
2023-03-24T09:41:01.066Z,55.80
2023-03-24T09:46:43.550Z,55.54
2023-03-24T09:52:11.241Z,55.58
2023-03-24T09:57:40.987Z,54.99
2023-03-24T10:03:15.287Z,54.17
2023-03-24T10:08:42.296Z,53.99
2023-03-24T10:14:18.524Z,53.28
2023-03-24T10:19:49.065Z,52.69
2023-03-24T10:25:19.512Z,52.07
2023-03-24T10:30:44.704Z,51.63
2023-03-24T10:36:15.088Z,50.60
2023-03-24T10:41:37.054Z,49.74
2023-03-24T10:47:03.807Z,49.40
2023-03-24T10:52:26.038Z,48.96
2023-03-24T10:57:51.493Z,48.40
2023-03-24T11:03:23.594Z,48.18
2023-03-24T11:08:46.423Z,48.41
2023-03-24T11:14:27.492Z,48.25
2023-03-24T11:19:53.972Z,47.78
2023-03-24T11:25:15.835Z,47.41
2023-03-24T11:30:54.555Z,47.24
2023-03-24T11:36:31.332Z,47.17
2023-03-24T11:42:13.408Z,46.93
2023-03-24T11:47:40.392Z,46.54
2023-03-24T11:53:15.836Z,46.76
2023-03-24T11:59:20.684Z,47.29
2023-03-24T12:05:10.176Z,47.09
2023-03-24T12:10:41.295Z,47.24
2023-03-24T12:16:26.605Z,46.95
2023-03-24T12:22:09.959Z,47.11
2023-03-24T12:27:42.792Z,47.27
2023-03-24T12:33:25.668Z,47.91
2023-03-24T12:38:51.840Z,47.99
2023-03-24T12:44:28.409Z,48.23
2023-03-24T12:50:08.908Z,48.20
2023-03-24T12:55:42.425Z,48.35
2023-03-24T13:01:21.039Z,48.31
2023-03-24T13:06:56.798Z,48.52
2023-03-24T13:12:47.942Z,48.85
2023-03-24T13:18:10.076Z,49.05
2023-03-24T13:23:38.261Z,49.17
2023-03-24T13:29:21.710Z,49.59
2023-03-24T13:34:49.493Z,50.49
2023-03-24T13:40:25.680Z,51.06
2023-03-24T13:45:49.649Z,51.17
2023-03-24T13:51:18.311Z,52.05
2023-03-24T13:56:45.473Z,52.91
2023-03-24T14:02:29.113Z,53.98
2023-03-24T14:08:12.940Z,54.17
2023-03-24T14:13:39.259Z,54.05
2023-03-24T14:19:19.080Z,53.65
2023-03-24T14:24:46.037Z,52.76
2023-03-24T14:30:15.781Z,49.97
2023-03-24T14:35:44.512Z,48.19
2023-03-24T14:41:09.976Z,47.38
2023-03-24T14:46:42.392Z,46.46
2023-03-24T14:52:13.459Z,45.92
2023-03-24T14:57:40.837Z,45.37
2023-03-24T15:03:16.797Z,45.33
2023-03-24T15:08:38.725Z,45.14
2023-03-24T15:14:02.882Z,45.20
2023-03-24T15:19:30.036Z,45.24
2023-03-24T15:24:52.473Z,46.04
2023-03-24T15:30:16.111Z,46.54
2023-03-24T15:35:38.147Z,47.40
2023-03-24T15:41:01.043Z,48.47
2023-03-24T15:46:29.539Z,50.00
2023-03-24T15:51:58.681Z,50.72
2023-03-24T15:57:22.323Z,52.06
2023-03-24T16:02:50.750Z,53.23
2023-03-24T16:08:27.658Z,54.21
2023-03-24T16:13:49.355Z,55.19
2023-03-24T16:19:11.502Z,56.22
2023-03-24T16:24:33.535Z,57.55
2023-03-24T16:29:55.964Z,58.46
2023-03-24T16:35:18.635Z,59.51
2023-03-24T16:40:44.210Z,59.97
2023-03-24T16:46:06.447Z,60.55
2023-03-24T16:51:29.883Z,61.69
2023-03-24T16:56:51.491Z,62.20
2023-03-24T17:02:14.983Z,62.79
2023-03-24T17:07:36.542Z,63.44
2023-03-24T17:12:58.174Z,63.85
2023-03-24T17:18:20.560Z,64.17
2023-03-24T17:23:50.304Z,64.16
2023-03-24T17:29:13.443Z,64.47
2023-03-24T17:34:34.895Z,64.70
2023-03-24T17:39:57.239Z,64.89
2023-03-24T17:45:20.435Z,64.75
2023-03-24T17:50:42.180Z,64.88
2023-03-24T17:56:07.098Z,64.79
2023-03-24T18:01:30.120Z,64.78
2023-03-24T18:06:51.771Z,64.67
2023-03-24T18:12:13.698Z,64.48
2023-03-24T18:17:36.551Z,64.61
2023-03-24T18:22:58.655Z,64.89
2023-03-24T18:28:22.088Z,65.02
2023-03-24T18:33:46.267Z,65.27
2023-03-24T18:39:09.336Z,65.53
2023-03-24T18:44:31.291Z,65.85
2023-03-24T18:49:53.421Z,66.01
2023-03-24T18:55:18.767Z,66.32
2023-03-24T19:00:47.716Z,66.59
2023-03-24T19:06:12.528Z,66.86
2023-03-24T19:11:34.902Z,67.04
2023-03-24T19:16:59.738Z,67.26
2023-03-24T19:22:22.364Z,67.35
2023-03-24T19:27:47.328Z,67.47
2023-03-24T19:33:11.391Z,67.72
2023-03-24T19:38:33.673Z,67.76
2023-03-24T19:43:55.710Z,67.96
2023-03-24T19:49:19.137Z,68.05
2023-03-24T19:54:40.808Z,68.29
2023-03-24T20:00:03.998Z,68.50
2023-03-24T20:05:26.528Z,68.57
2023-03-24T20:10:50.136Z,68.80
2023-03-24T20:16:12.246Z,68.95
2023-03-24T20:21:34.024Z,69.00
2023-03-24T20:26:56.755Z,69.32
2023-03-24T20:32:18.480Z,69.41
2023-03-24T20:37:40.353Z,69.47
2023-03-24T20:43:03.453Z,69.60
2023-03-24T20:48:27.480Z,69.71
2023-03-24T20:53:50.137Z,69.74
2023-03-24T20:59:14.053Z,69.79
2023-03-24T21:04:37.290Z,69.92
2023-03-24T21:09:59.111Z,69.75
2023-03-24T21:15:22.839Z,69.96
2023-03-24T21:20:55.226Z,69.84
2023-03-24T21:26:18.209Z,69.88
2023-03-24T21:31:46.950Z,69.71
2023-03-24T21:37:12.844Z,69.60
2023-03-24T21:42:35.077Z,69.59
2023-03-24T21:47:57.041Z,69.61
2023-03-24T21:53:23.660Z,69.51
2023-03-24T21:58:46.579Z,69.43
2023-03-24T22:04:08.881Z,69.33
2023-03-24T22:09:31.049Z,69.42
2023-03-24T22:14:54.086Z,69.53
2023-03-24T22:20:16.935Z,69.51
2023-03-24T22:25:38.839Z,69.62
2023-03-24T22:31:15.399Z,69.63
2023-03-24T22:36:37.548Z,69.78
2023-03-24T22:42:01.186Z,69.90
2023-03-24T22:47:24.233Z,70.03
2023-03-24T22:52:50.459Z,70.07
2023-03-24T22:58:13.496Z,70.17
2023-03-24T23:03:39.986Z,70.18
2023-03-24T23:09:04.477Z,70.37
2023-03-24T23:14:26.612Z,70.41
2023-03-24T23:19:48.035Z,70.56
2023-03-24T23:25:10.166Z,70.58
2023-03-24T23:30:32.091Z,70.71
2023-03-24T23:35:58.393Z,70.80
2023-03-24T23:41:20.870Z,70.84
2023-03-24T23:46:42.500Z,70.83
2023-03-24T23:52:04.363Z,71.04
2023-03-24T23:57:26.417Z,71.04
